sensor_id;sensor_type;location;lat;lon;timestamp;pressure;altitude;pressure_sealevel;temperature;humidity
31717;BME280;18301;51.076;17.046;2024-03-22T00:00:31;100539.84;;;12.14;84.94
31717;BME280;18301;51.076;17.046;2024-03-22T00:05:32;100544.97;;;11.95;85.32
31717;BME280;18301;51.076;17.046;2024-03-22T00:10:32;100540.94;;;11.77;86.11
31717;BME280;18301;51.076;17.046;2024-03-22T00:15:33;100536.88;;;12.06;84.97
31717;BME280;18301;51.076;17.046;2024-03-22T00:20:34;100540.47;;;11.83;85.63
31717;BME280;18301;51.076;17.046;2024-03-22T00:25:34;100529.09;;;11.66;87.38
31717;BME280;18301;51.076;17.046;2024-03-22T00:30:35;100541.41;;;11.70;84.89
31717;BME280;18301;51.076;17.046;2024-03-22T00:35:36;100537.28;;;11.53;83.59
31717;BME280;18301;51.076;17.046;2024-03-22T00:40:36;100551.19;;;11.12;83.14
31717;BME280;18301;51.076;17.046;2024-03-22T00:45:37;100557.63;;;11.22;82.83
31717;BME280;18301;51.076;17.046;2024-03-22T00:50:38;100541.94;;;11.27;82.77
31717;BME280;18301;51.076;17.046;2024-03-22T00:55:38;100547.38;;;11.39;80.36
31717;BME280;18301;51.076;17.046;2024-03-22T01:00:39;100557.25;;;11.03;80.32
31717;BME280;18301;51.076;17.046;2024-03-22T01:05:40;100544.94;;;11.12;80.77
31717;BME280;18301;51.076;17.046;2024-03-22T01:10:42;100546.03;;;11.33;79.26
31717;BME280;18301;51.076;17.046;2024-03-22T01:15:43;100532.50;;;11.09;78.80
31717;BME280;18301;51.076;17.046;2024-03-22T01:20:44;100536.91;;;11.10;78.56
31717;BME280;18301;51.076;17.046;2024-03-22T01:25:45;100533.28;;;10.98;79.17
31717;BME280;18301;51.076;17.046;2024-03-22T01:30:45;100546.16;;;10.95;78.27
31717;BME280;18301;51.076;17.046;2024-03-22T01:35:46;100534.97;;;10.75;78.97
31717;BME280;18301;51.076;17.046;2024-03-22T01:40:47;100530.16;;;10.42;80.71
31717;BME280;18301;51.076;17.046;2024-03-22T01:45:47;100513.38;;;10.75;78.94
31717;BME280;18301;51.076;17.046;2024-03-22T01:50:48;100513.19;;;10.53;80.18
31717;BME280;18301;51.076;17.046;2024-03-22T01:55:49;100512.66;;;10.48;80.99
31717;BME280;18301;51.076;17.046;2024-03-22T02:00:49;100514.09;;;10.77;81.20
31717;BME280;18301;51.076;17.046;2024-03-22T02:05:50;100517.06;;;10.23;83.64
31717;BME280;18301;51.076;17.046;2024-03-22T02:10:51;100510.53;;;10.27;83.97
31717;BME280;18301;51.076;17.046;2024-03-22T02:15:53;100501.97;;;10.46;83.02
31717;BME280;18301;51.076;17.046;2024-03-22T02:20:53;100501.44;;;10.54;82.99
31717;BME280;18301;51.076;17.046;2024-03-22T02:25:54;100502.16;;;10.56;82.86
31717;BME280;18301;51.076;17.046;2024-03-22T02:30:55;100500.78;;;10.63;83.03
31717;BME280;18301;51.076;17.046;2024-03-22T02:35:55;100496.34;;;10.99;82.42
31717;BME280;18301;51.076;17.046;2024-03-22T02:40:57;100497.09;;;10.64;83.34
31717;BME280;18301;51.076;17.046;2024-03-22T02:45:58;100495.75;;;10.82;83.12
31717;BME280;18301;51.076;17.046;2024-03-22T02:50:59;100499.69;;;10.66;83.82
31717;BME280;18301;51.076;17.046;2024-03-22T02:56:00;100491.38;;;10.93;83.09
31717;BME280;18301;51.076;17.046;2024-03-22T03:01:01;100491.94;;;10.48;86.42
31717;BME280;18301;51.076;17.046;2024-03-22T03:06:03;100491.50;;;10.54;85.34
31717;BME280;18301;51.076;17.046;2024-03-22T03:11:03;100489.59;;;10.44;86.60
31717;BME280;18301;51.076;17.046;2024-03-22T03:16:04;100483.56;;;10.27;89.75
31717;BME280;18301;51.076;17.046;2024-03-22T03:21:05;100493.78;;;10.22;92.04
31717;BME280;18301;51.076;17.046;2024-03-22T03:26:06;100477.50;;;10.11;94.36
31717;BME280;18301;51.076;17.046;2024-03-22T03:31:06;100468.66;;;10.34;91.02
31717;BME280;18301;51.076;17.046;2024-03-22T03:36:07;100463.66;;;10.15;92.87
31717;BME280;18301;51.076;17.046;2024-03-22T03:41:08;100462.09;;;10.13;93.60
31717;BME280;18301;51.076;17.046;2024-03-22T03:46:08;100461.31;;;9.85;97.31
31717;BME280;18301;51.076;17.046;2024-03-22T03:51:09;100466.06;;;10.20;93.95
31717;BME280;18301;51.076;17.046;2024-03-22T03:56:09;100466.94;;;10.08;95.41
31717;BME280;18301;51.076;17.046;2024-03-22T04:01:10;100464.88;;;9.99;96.49
31717;BME280;18301;51.076;17.046;2024-03-22T04:06:11;100464.31;;;9.94;96.86
31717;BME280;18301;51.076;17.046;2024-03-22T04:11:11;100473.91;;;9.72;99.02
31717;BME280;18301;51.076;17.046;2024-03-22T04:16:12;100478.78;;;9.93;96.88
31717;BME280;18301;51.076;17.046;2024-03-22T04:21:13;100467.56;;;10.11;96.05
31717;BME280;18301;51.076;17.046;2024-03-22T04:26:14;100455.06;;;9.98;96.65
31717;BME280;18301;51.076;17.046;2024-03-22T04:31:15;100461.53;;;10.08;95.16
31717;BME280;18301;51.076;17.046;2024-03-22T04:36:16;100460.53;;;10.22;95.10
31717;BME280;18301;51.076;17.046;2024-03-22T04:41:16;100468.63;;;10.09;96.15
31717;BME280;18301;51.076;17.046;2024-03-22T04:46:17;100464.78;;;10.13;95.25
31717;BME280;18301;51.076;17.046;2024-03-22T04:51:18;100466.06;;;9.95;96.39
31717;BME280;18301;51.076;17.046;2024-03-22T04:56:18;100468.84;;;10.06;95.90
31717;BME280;18301;51.076;17.046;2024-03-22T05:01:19;100476.41;;;10.13;95.28
31717;BME280;18301;51.076;17.046;2024-03-22T05:06:20;100477.47;;;10.24;94.70
31717;BME280;18301;51.076;17.046;2024-03-22T05:11:20;100477.94;;;10.05;96.89
31717;BME280;18301;51.076;17.046;2024-03-22T05:16:21;100480.75;;;10.16;94.51
31717;BME280;18301;51.076;17.046;2024-03-22T05:21:24;100474.91;;;10.22;94.98
31717;BME280;18301;51.076;17.046;2024-03-22T05:26:24;100471.34;;;10.09;96.13
31717;BME280;18301;51.076;17.046;2024-03-22T05:31:25;100478.34;;;10.24;96.04
31717;BME280;18301;51.076;17.046;2024-03-22T05:36:25;100482.22;;;9.82;100.00
31717;BME280;18301;51.076;17.046;2024-03-22T05:41:26;100474.59;;;9.88;99.75
31717;BME280;18301;51.076;17.046;2024-03-22T05:46:27;100486.09;;;9.90;98.40
31717;BME280;18301;51.076;17.046;2024-03-22T05:51:27;100477.06;;;9.91;98.72
31717;BME280;18301;51.076;17.046;2024-03-22T05:56:28;100486.09;;;9.90;99.92
31717;BME280;18301;51.076;17.046;2024-03-22T06:01:29;100484.50;;;10.13;97.65
31717;BME280;18301;51.076;17.046;2024-03-22T06:06:29;100482.88;;;9.98;98.56
31717;BME280;18301;51.076;17.046;2024-03-22T06:11:30;100487.63;;;9.95;98.25
31717;BME280;18301;51.076;17.046;2024-03-22T06:16:31;100492.94;;;10.34;96.58
31717;BME280;18301;51.076;17.046;2024-03-22T06:21:31;100474.25;;;9.80;98.13
31717;BME280;18301;51.076;17.046;2024-03-22T06:26:32;100488.38;;;9.84;98.59
31717;BME280;18301;51.076;17.046;2024-03-22T06:31:32;100480.72;;;10.03;97.28
31717;BME280;18301;51.076;17.046;2024-03-22T06:36:33;100482.88;;;10.11;96.77
31717;BME280;18301;51.076;17.046;2024-03-22T06:41:34;100481.81;;;10.01;96.53
31717;BME280;18301;51.076;17.046;2024-03-22T06:46:35;100468.22;;;10.15;95.96
31717;BME280;18301;51.076;17.046;2024-03-22T06:51:35;100471.44;;;10.20;95.15
31717;BME280;18301;51.076;17.046;2024-03-22T06:56:36;100471.66;;;10.17;94.50
31717;BME280;18301;51.076;17.046;2024-03-22T07:01:37;100472.50;;;10.56;91.19
31717;BME280;18301;51.076;17.046;2024-03-22T07:06:38;100460.44;;;10.23;92.70
31717;BME280;18301;51.076;17.046;2024-03-22T07:11:38;100454.41;;;10.32;88.91
31717;BME280;18301;51.076;17.046;2024-03-22T07:16:39;100447.31;;;10.31;88.94
31717;BME280;18301;51.076;17.046;2024-03-22T07:21:40;100441.16;;;10.29;89.82
31717;BME280;18301;51.076;17.046;2024-03-22T07:26:40;100451.13;;;10.53;89.56
31717;BME280;18301;51.076;17.046;2024-03-22T07:31:41;100457.44;;;10.41;90.03
31717;BME280;18301;51.076;17.046;2024-03-22T07:36:42;100464.72;;;10.64;88.33
31717;BME280;18301;51.076;17.046;2024-03-22T07:41:43;100463.72;;;10.65;88.67
31717;BME280;18301;51.076;17.046;2024-03-22T07:46:44;100464.56;;;10.42;88.87
31717;BME280;18301;51.076;17.046;2024-03-22T07:51:45;100456.50;;;10.66;88.71
31717;BME280;18301;51.076;17.046;2024-03-22T07:56:46;100455.66;;;10.52;88.30
31717;BME280;18301;51.076;17.046;2024-03-22T08:01:46;100440.28;;;10.78;85.57
31717;BME280;18301;51.076;17.046;2024-03-22T08:06:47;100441.25;;;10.41;86.27
31717;BME280;18301;51.076;17.046;2024-03-22T08:11:48;100422.84;;;10.58;85.37
31717;BME280;18301;51.076;17.046;2024-03-22T08:16:48;100412.16;;;11.05;86.03
31717;BME280;18301;51.076;17.046;2024-03-22T08:21:49;100404.22;;;11.50;83.05
31717;BME280;18301;51.076;17.046;2024-03-22T08:26:49;100394.16;;;11.63;82.86
31717;BME280;18301;51.076;17.046;2024-03-22T08:31:50;100390.56;;;11.87;82.04
31717;BME280;18301;51.076;17.046;2024-03-22T08:36:51;100388.84;;;11.86;81.78
31717;BME280;18301;51.076;17.046;2024-03-22T08:41:52;100381.22;;;12.13;81.68
31717;BME280;18301;51.076;17.046;2024-03-22T08:46:52;100381.88;;;12.60;78.94
31717;BME280;18301;51.076;17.046;2024-03-22T08:51:53;100364.34;;;13.08;78.05
31717;BME280;18301;51.076;17.046;2024-03-22T08:56:53;100360.34;;;13.23;73.40
31717;BME280;18301;51.076;17.046;2024-03-22T09:01:54;100346.06;;;13.00;76.27
31717;BME280;18301;51.076;17.046;2024-03-22T09:06:55;100347.97;;;13.09;73.88
31717;BME280;18301;51.076;17.046;2024-03-22T09:11:55;100337.97;;;13.42;74.21
31717;BME280;18301;51.076;17.046;2024-03-22T09:16:56;100335.66;;;13.58;72.81
31717;BME280;18301;51.076;17.046;2024-03-22T09:21:57;100345.13;;;13.43;72.12
31717;BME280;18301;51.076;17.046;2024-03-22T09:26:57;100339.59;;;13.54;69.88
31717;BME280;18301;51.076;17.046;2024-03-22T09:31:59;100329.50;;;13.56;70.21
31717;BME280;18301;51.076;17.046;2024-03-22T09:36:59;100340.50;;;13.23;69.60
31717;BME280;18301;51.076;17.046;2024-03-22T09:42:00;100324.50;;;13.31;71.72
31717;BME280;18301;51.076;17.046;2024-03-22T09:47:04;100331.09;;;13.38;72.14
31717;BME280;18301;51.076;17.046;2024-03-22T09:52:05;100333.50;;;13.20;69.22
31717;BME280;18301;51.076;17.046;2024-03-22T09:57:14;100330.28;;;13.26;69.32
31717;BME280;18301;51.076;17.046;2024-03-22T10:02:19;100316.09;;;13.55;68.29
31717;BME280;18301;51.076;17.046;2024-03-22T10:07:21;100323.13;;;13.04;67.38
31717;BME280;18301;51.076;17.046;2024-03-22T10:12:21;100316.63;;;13.28;67.93
31717;BME280;18301;51.076;17.046;2024-03-22T10:17:22;100305.56;;;13.41;69.26
31717;BME280;18301;51.076;17.046;2024-03-22T10:22:22;100310.84;;;13.42;70.34
31717;BME280;18301;51.076;17.046;2024-03-22T10:27:26;100292.16;;;13.39;69.60
31717;BME280;18301;51.076;17.046;2024-03-22T10:32:27;100289.81;;;13.55;68.52
31717;BME280;18301;51.076;17.046;2024-03-22T10:37:28;100279.78;;;13.77;68.21
31717;BME280;18301;51.076;17.046;2024-03-22T10:42:29;100284.66;;;13.83;65.39
31717;BME280;18301;51.076;17.046;2024-03-22T10:47:33;100274.09;;;13.80;67.16
31717;BME280;18301;51.076;17.046;2024-03-22T10:52:45;100270.16;;;14.03;67.80
31717;BME280;18301;51.076;17.046;2024-03-22T10:57:47;100267.50;;;14.13;66.21
31717;BME280;18301;51.076;17.046;2024-03-22T11:02:48;100264.03;;;14.01;65.94
31717;BME280;18301;51.076;17.046;2024-03-22T11:08:01;100252.91;;;14.24;67.04
31717;BME280;18301;51.076;17.046;2024-03-22T11:13:05;100245.78;;;14.33;65.06
31717;BME280;18301;51.076;17.046;2024-03-22T11:18:08;100240.38;;;14.33;61.11
31717;BME280;18301;51.076;17.046;2024-03-22T11:23:09;100220.69;;;14.60;62.27
31717;BME280;18301;51.076;17.046;2024-03-22T11:28:10;100209.94;;;14.78;64.09
31717;BME280;18301;51.076;17.046;2024-03-22T11:33:10;100190.88;;;15.07;60.95
31717;BME280;18301;51.076;17.046;2024-03-22T11:38:11;100188.78;;;15.28;61.15
31717;BME280;18301;51.076;17.046;2024-03-22T11:43:12;100183.44;;;15.09;59.02
31717;BME280;18301;51.076;17.046;2024-03-22T11:48:15;100180.19;;;14.86;59.16
31717;BME280;18301;51.076;17.046;2024-03-22T11:53:16;100173.63;;;14.79;59.56
31717;BME280;18301;51.076;17.046;2024-03-22T11:58:18;100157.59;;;14.85;57.98
31717;BME280;18301;51.076;17.046;2024-03-22T12:03:19;100149.59;;;14.84;57.38
31717;BME280;18301;51.076;17.046;2024-03-22T12:08:20;100149.31;;;14.77;58.77
31717;BME280;18301;51.076;17.046;2024-03-22T12:13:21;100143.75;;;14.79;60.42
31717;BME280;18301;51.076;17.046;2024-03-22T12:18:21;100131.09;;;14.60;60.68
31717;BME280;18301;51.076;17.046;2024-03-22T12:23:22;100130.34;;;14.58;61.25
31717;BME280;18301;51.076;17.046;2024-03-22T12:28:23;100125.06;;;14.66;60.74
31717;BME280;18301;51.076;17.046;2024-03-22T12:33:24;100113.91;;;14.49;62.15
31717;BME280;18301;51.076;17.046;2024-03-22T12:38:24;100104.34;;;14.55;60.79
31717;BME280;18301;51.076;17.046;2024-03-22T12:43:25;100099.47;;;14.59;60.09
31717;BME280;18301;51.076;17.046;2024-03-22T12:48:26;100088.63;;;14.39;59.80
31717;BME280;18301;51.076;17.046;2024-03-22T12:53:26;100077.22;;;14.36;61.62
31717;BME280;18301;51.076;17.046;2024-03-22T12:58:27;100077.47;;;14.42;61.20
31717;BME280;18301;51.076;17.046;2024-03-22T13:03:28;100069.31;;;14.62;61.54
31717;BME280;18301;51.076;17.046;2024-03-22T13:08:29;100062.31;;;14.69;60.59
31717;BME280;18301;51.076;17.046;2024-03-22T13:13:29;100059.28;;;14.72;61.49
31717;BME280;18301;51.076;17.046;2024-03-22T13:18:30;100053.66;;;14.83;59.99
31717;BME280;18301;51.076;17.046;2024-03-22T13:23:31;100052.06;;;14.90;58.66
31717;BME280;18301;51.076;17.046;2024-03-22T13:28:31;100040.44;;;14.98;58.36
31717;BME280;18301;51.076;17.046;2024-03-22T13:33:35;100029.50;;;15.08;56.18
31717;BME280;18301;51.076;17.046;2024-03-22T13:38:36;100017.13;;;15.23;57.68
31717;BME280;18301;51.076;17.046;2024-03-22T13:43:37;100004.72;;;15.38;57.21
31717;BME280;18301;51.076;17.046;2024-03-22T13:48:40;100006.06;;;15.34;56.15
31717;BME280;18301;51.076;17.046;2024-03-22T13:53:40;99997.47;;;15.29;57.26
31717;BME280;18301;51.076;17.046;2024-03-22T13:58:41;99994.59;;;15.13;55.46
31717;BME280;18301;51.076;17.046;2024-03-22T14:03:42;99985.13;;;15.17;56.95
31717;BME280;18301;51.076;17.046;2024-03-22T14:08:42;99978.94;;;15.42;55.33
31717;BME280;18301;51.076;17.046;2024-03-22T14:13:43;99981.72;;;15.51;52.32
31717;BME280;18301;51.076;17.046;2024-03-22T14:18:45;99965.34;;;15.42;51.89
31717;BME280;18301;51.076;17.046;2024-03-22T14:23:46;99967.69;;;15.55;53.72
31717;BME280;18301;51.076;17.046;2024-03-22T14:28:47;99951.22;;;15.75;53.67
31717;BME280;18301;51.076;17.046;2024-03-22T14:33:48;99942.06;;;15.40;54.16
31717;BME280;18301;51.076;17.046;2024-03-22T14:38:49;99938.69;;;15.28;56.04
31717;BME280;18301;51.076;17.046;2024-03-22T14:43:50;99934.50;;;15.52;56.60
31717;BME280;18301;51.076;17.046;2024-03-22T14:48:54;99927.88;;;15.54;56.79
31717;BME280;18301;51.076;17.046;2024-03-22T14:53:55;99921.31;;;15.21;58.03
31717;BME280;18301;51.076;17.046;2024-03-22T14:58:55;99918.19;;;15.16;58.51
31717;BME280;18301;51.076;17.046;2024-03-22T15:03:58;99911.06;;;15.15;58.59
31717;BME280;18301;51.076;17.046;2024-03-22T15:08:58;99893.34;;;15.11;59.41
31717;BME280;18301;51.076;17.046;2024-03-22T15:14:02;99897.91;;;14.92;59.22
31717;BME280;18301;51.076;17.046;2024-03-22T15:19:03;99896.16;;;14.73;59.41
31717;BME280;18301;51.076;17.046;2024-03-22T15:24:04;99884.97;;;14.59;60.58
31717;BME280;18301;51.076;17.046;2024-03-22T15:29:05;99876.28;;;14.45;60.87
31717;BME280;18301;51.076;17.046;2024-03-22T15:34:05;99862.56;;;14.47;60.16
31717;BME280;18301;51.076;17.046;2024-03-22T15:39:06;99859.50;;;14.32;61.81
31717;BME280;18301;51.076;17.046;2024-03-22T15:44:08;99853.84;;;14.16;62.29
31717;BME280;18301;51.076;17.046;2024-03-22T15:49:08;99853.72;;;14.17;62.61
31717;BME280;18301;51.076;17.046;2024-03-22T15:54:10;99846.31;;;14.10;62.96
31717;BME280;18301;51.076;17.046;2024-03-22T15:59:10;99826.16;;;14.12;64.09
31717;BME280;18301;51.076;17.046;2024-03-22T16:04:11;99837.56;;;14.16;63.69
31717;BME280;18301;51.076;17.046;2024-03-22T16:09:11;99832.13;;;14.25;63.91
31717;BME280;18301;51.076;17.046;2024-03-22T16:14:13;99828.75;;;14.14;65.85
31717;BME280;18301;51.076;17.046;2024-03-22T16:19:13;99826.94;;;14.04;66.66
31717;BME280;18301;51.076;17.046;2024-03-22T16:24:14;99821.84;;;13.92;66.87
31717;BME280;18301;51.076;17.046;2024-03-22T16:29:14;99817.44;;;13.81;67.36
31717;BME280;18301;51.076;17.046;2024-03-22T16:34:15;99821.78;;;13.74;68.38
31717;BME280;18301;51.076;17.046;2024-03-22T16:39:16;99820.94;;;13.64;67.67
31717;BME280;18301;51.076;17.046;2024-03-22T16:44:16;99830.31;;;13.69;68.45
31717;BME280;18301;51.076;17.046;2024-03-22T16:49:17;99811.09;;;13.63;69.24
31717;BME280;18301;51.076;17.046;2024-03-22T16:54:18;99812.25;;;13.60;69.23
31717;BME280;18301;51.076;17.046;2024-03-22T16:59:20;99814.69;;;13.53;69.53
31717;BME280;18301;51.076;17.046;2024-03-22T17:04:21;99816.00;;;13.49;69.31
31717;BME280;18301;51.076;17.046;2024-03-22T17:09:22;99808.56;;;13.42;69.93
31717;BME280;18301;51.076;17.046;2024-03-22T17:14:22;99796.16;;;13.49;68.94
31717;BME280;18301;51.076;17.046;2024-03-22T17:19:23;99792.88;;;13.45;68.81
31717;BME280;18301;51.076;17.046;2024-03-22T17:24:24;99791.31;;;13.52;68.60
31717;BME280;18301;51.076;17.046;2024-03-22T17:29:25;99790.72;;;13.58;68.59
31717;BME280;18301;51.076;17.046;2024-03-22T17:34:26;99788.38;;;13.64;68.26
31717;BME280;18301;51.076;17.046;2024-03-22T17:39:27;99778.44;;;13.64;68.38
31717;BME280;18301;51.076;17.046;2024-03-22T17:44:27;99773.84;;;13.65;68.41
31717;BME280;18301;51.076;17.046;2024-03-22T17:49:28;99772.28;;;13.62;67.53
31717;BME280;18301;51.076;17.046;2024-03-22T17:54:29;99776.69;;;13.63;67.39
31717;BME280;18301;51.076;17.046;2024-03-22T17:59:30;99765.00;;;13.63;67.47
31717;BME280;18301;51.076;17.046;2024-03-22T18:04:30;99764.72;;;13.66;67.42
31717;BME280;18301;51.076;17.046;2024-03-22T18:09:31;99765.72;;;13.65;67.44
31717;BME280;18301;51.076;17.046;2024-03-22T18:14:32;99771.28;;;13.63;67.06
31717;BME280;18301;51.076;17.046;2024-03-22T18:19:32;99766.00;;;13.62;67.15
31717;BME280;18301;51.076;17.046;2024-03-22T18:24:33;99759.88;;;13.59;66.96
31717;BME280;18301;51.076;17.046;2024-03-22T18:29:35;99761.56;;;13.61;66.91
31717;BME280;18301;51.076;17.046;2024-03-22T18:34:35;99759.31;;;13.56;67.03
31717;BME280;18301;51.076;17.046;2024-03-22T18:39:36;99751.06;;;13.48;66.57
31717;BME280;18301;51.076;17.046;2024-03-22T18:44:37;99748.56;;;13.37;66.67
31717;BME280;18301;51.076;17.046;2024-03-22T18:49:40;99745.97;;;13.35;66.91
31717;BME280;18301;51.076;17.046;2024-03-22T18:54:55;99752.81;;;13.39;66.75
31717;BME280;18301;51.076;17.046;2024-03-22T18:59:57;99748.25;;;13.30;66.85
31717;BME280;18301;51.076;17.046;2024-03-22T19:04:58;99736.16;;;13.14;66.96
31717;BME280;18301;51.076;17.046;2024-03-22T19:09:58;99736.03;;;13.26;66.96
31717;BME280;18301;51.076;17.046;2024-03-22T19:14:59;99740.28;;;13.19;66.94
31717;BME280;18301;51.076;17.046;2024-03-22T19:19:59;99747.16;;;13.13;66.68
31717;BME280;18301;51.076;17.046;2024-03-22T19:25:00;99743.97;;;13.18;67.02
31717;BME280;18301;51.076;17.046;2024-03-22T19:30:01;99729.72;;;13.35;66.82
31717;BME280;18301;51.076;17.046;2024-03-22T19:35:02;99721.16;;;13.40;66.64
31717;BME280;18301;51.076;17.046;2024-03-22T19:40:02;99718.25;;;13.51;66.54
31717;BME280;18301;51.076;17.046;2024-03-22T19:45:04;99720.41;;;13.47;66.70
31717;BME280;18301;51.076;17.046;2024-03-22T19:50:06;99722.91;;;13.31;67.24
31717;BME280;18301;51.076;17.046;2024-03-22T19:55:06;99718.16;;;13.23;68.17
31717;BME280;18301;51.076;17.046;2024-03-22T20:00:08;99714.06;;;13.19;68.14
31717;BME280;18301;51.076;17.046;2024-03-22T20:05:09;99718.63;;;13.19;68.42
31717;BME280;18301;51.076;17.046;2024-03-22T20:10:10;99711.25;;;13.01;70.11
31717;BME280;18301;51.076;17.046;2024-03-22T20:15:10;99709.81;;;13.07;69.81
31717;BME280;18301;51.076;17.046;2024-03-22T20:20:11;99708.66;;;13.09;69.45
31717;BME280;18301;51.076;17.046;2024-03-22T20:25:13;99706.81;;;13.00;72.11
31717;BME280;18301;51.076;17.046;2024-03-22T20:30:14;99703.88;;;12.84;73.02
31717;BME280;18301;51.076;17.046;2024-03-22T20:35:14;99706.28;;;12.77;73.79
